createdAt,value
2019-05-26T00:02:23.147Z,163.03
2019-05-26T00:04:53.650Z,127.27
2019-05-26T00:07:30.778Z,133.47
2019-05-26T00:09:56.376Z,131.07
2019-05-26T00:12:26.826Z,319.77
2019-05-26T00:14:57.127Z,355.60
2019-05-26T00:17:27.893Z,322.17
2019-05-26T00:19:58.699Z,369.57
2019-05-26T00:22:29.129Z,328.43
2019-05-26T00:24:59.595Z,239.47
2019-05-26T00:27:30.024Z,241.47
2019-05-26T00:30:00.797Z,184.63
2019-05-26T00:32:31.280Z,185.63
2019-05-26T00:35:01.681Z,295.13
2019-05-26T00:37:47.648Z,265.83
2019-05-26T00:40:05.124Z,242.00
2019-05-26T00:42:35.476Z,231.50
2019-05-26T00:45:06.585Z,247.70
2019-05-26T00:47:38.124Z,231.23
2019-05-26T00:50:09.801Z,262.27
2019-05-26T00:52:40.454Z,231.57
2019-05-26T00:55:11.119Z,231.47
2019-05-26T00:57:41.984Z,268.03
2019-05-26T01:00:13.031Z,257.47
2019-05-26T01:02:43.334Z,213.07
2019-05-26T01:05:14.162Z,207.93
2019-05-26T01:07:44.570Z,222.73
2019-05-26T01:10:15.199Z,193.50
2019-05-26T01:12:46.549Z,231.10
2019-05-26T01:15:17.465Z,245.50
2019-05-26T01:17:47.928Z,231.13
2019-05-26T01:20:18.338Z,210.40
2019-05-26T01:22:49.039Z,184.50
2019-05-26T01:25:19.824Z,174.80
2019-05-26T01:27:50.560Z,122.57
2019-05-26T01:30:24.158Z,116.60
2019-05-26T01:32:54.528Z,111.87
2019-05-26T01:35:24.949Z,90.73
2019-05-26T01:37:55.279Z,108.87
2019-05-26T01:40:35.219Z,276.13
2019-05-26T01:43:06.034Z,241.70
2019-05-26T01:45:36.629Z,108.17
2019-05-26T01:48:08.197Z,223.70
2019-05-26T01:50:39.084Z,370.13
2019-05-26T01:53:09.609Z,273.93
2019-05-26T01:55:39.919Z,255.30
2019-05-26T01:58:10.438Z,329.33
2019-05-26T02:00:41.457Z,298.93
2019-05-26T02:03:11.772Z,344.97
2019-05-26T02:05:42.157Z,417.43
2019-05-26T02:08:12.650Z,487.67
2019-05-26T02:10:43.162Z,499.13
2019-05-26T02:13:13.524Z,509.53
2019-05-26T02:15:44.214Z,438.37
2019-05-26T02:18:14.530Z,423.63
2019-05-26T02:20:44.869Z,230.70
2019-05-26T02:23:15.562Z,347.93
2019-05-26T02:25:46.143Z,282.30
2019-05-26T02:28:16.433Z,383.87
2019-05-26T02:30:47.174Z,428.27
2019-05-26T02:33:17.502Z,358.20
2019-05-26T02:35:47.930Z,364.43
2019-05-26T02:38:19.242Z,447.13
2019-05-26T02:40:49.559Z,504.43
2019-05-26T02:43:20.265Z,367.80
2019-05-26T02:45:50.913Z,393.50
2019-05-26T02:48:21.256Z,277.43
2019-05-26T02:50:52.057Z,196.73
2019-05-26T02:53:24.751Z,162.07
2019-05-26T02:55:54.976Z,170.70
2019-05-26T02:58:25.744Z,198.60
2019-05-26T03:00:56.532Z,462.83
2019-05-26T03:03:26.898Z,351.90
2019-05-26T03:05:58.165Z,168.00
2019-05-26T03:08:29.465Z,352.50
2019-05-26T03:11:01.622Z,361.17
2019-05-26T03:13:35.767Z,431.03
2019-05-26T03:16:06.567Z,548.90
2019-05-26T03:18:39.386Z,717.27
2019-05-26T03:21:12.557Z,579.73
2019-05-26T03:23:45.248Z,553.57
2019-05-26T03:26:18.727Z,482.13
2019-05-26T03:28:49.517Z,419.03
2019-05-26T03:31:19.845Z,388.60
2019-05-26T03:33:50.198Z,424.13
2019-05-26T03:36:20.902Z,428.57
2019-05-26T03:38:51.614Z,167.43
2019-05-26T03:41:22.228Z,205.23
2019-05-26T03:43:52.529Z,134.83
2019-05-26T03:46:23.286Z,120.80
2019-05-26T03:48:54.021Z,109.47
2019-05-26T03:51:24.392Z,66.57
2019-05-26T03:53:54.788Z,54.03
2019-05-26T03:56:25.426Z,52.03
2019-05-26T03:58:55.726Z,62.20
2019-05-26T04:01:26.023Z,147.97
2019-05-26T04:03:56.780Z,302.53
2019-05-26T04:06:27.291Z,515.37
2019-05-26T04:08:57.650Z,718.27
2019-05-26T04:11:28.385Z,789.40
2019-05-26T04:13:59.033Z,867.27
2019-05-26T04:16:29.749Z,807.23
2019-05-26T04:19:00.445Z,346.80
2019-05-26T04:21:30.892Z,303.17
2019-05-26T04:24:01.223Z,325.73
2019-05-26T04:26:31.739Z,325.53
2019-05-26T04:29:02.453Z,354.40
2019-05-26T04:31:32.837Z,339.33
2019-05-26T04:34:03.275Z,380.23
2019-05-26T04:36:34.031Z,403.27
2019-05-26T04:39:05.728Z,441.50
2019-05-26T04:41:36.546Z,535.00
2019-05-26T04:44:06.915Z,560.43
2019-05-26T04:46:37.653Z,600.87
2019-05-26T04:49:08.456Z,356.43
2019-05-26T04:51:38.853Z,178.17
2019-05-26T04:54:09.227Z,168.50
2019-05-26T04:56:40.065Z,179.87
2019-05-26T04:59:10.459Z,277.10
2019-05-26T05:01:40.884Z,374.23
2019-05-26T05:04:11.737Z,456.77
2019-05-26T05:06:42.241Z,471.93
2019-05-26T05:09:12.560Z,562.33
2019-05-26T05:11:43.220Z,609.93
2019-05-26T05:14:13.681Z,620.03
2019-05-26T05:16:44.350Z,611.00
2019-05-26T05:19:14.825Z,651.50
2019-05-26T05:21:45.186Z,656.90
2019-05-26T05:24:15.869Z,559.70
2019-05-26T05:26:46.253Z,574.07
2019-05-26T05:29:16.747Z,670.57
2019-05-26T05:31:47.493Z,699.97
2019-05-26T05:34:17.980Z,713.93
2019-05-26T05:36:48.336Z,506.97
2019-05-26T05:39:18.958Z,502.40
2019-05-26T05:41:49.570Z,526.40
2019-05-26T05:44:20.422Z,506.37
2019-05-26T05:46:50.996Z,493.70
2019-05-26T05:49:21.329Z,508.27
2019-05-26T05:51:52.044Z,540.00
2019-05-26T05:54:22.483Z,464.77
2019-05-26T05:56:55.590Z,442.27
2019-05-26T05:59:24.907Z,414.80
2019-05-26T06:01:55.532Z,407.93
2019-05-26T06:04:25.891Z,384.37
2019-05-26T06:06:56.373Z,335.50
2019-05-26T06:09:27.243Z,359.57
2019-05-26T06:11:57.592Z,323.33
2019-05-26T06:14:28.079Z,351.77
2019-05-26T06:16:58.601Z,346.67
2019-05-26T06:19:29.517Z,343.30
2019-05-26T06:21:59.923Z,403.43
2019-05-26T06:24:30.301Z,460.90
2019-05-26T06:27:00.839Z,498.10
2019-05-26T06:29:31.406Z,466.83
2019-05-26T06:32:02.172Z,458.70
2019-05-26T06:34:32.680Z,456.97
2019-05-26T06:37:03.456Z,438.93
2019-05-26T06:39:33.802Z,407.23
2019-05-26T06:42:04.314Z,427.17
2019-05-26T06:44:52.106Z,392.40
2019-05-26T06:47:07.377Z,382.73
2019-05-26T06:49:39.136Z,350.03
2019-05-26T06:52:09.441Z,312.03
2019-05-26T06:54:39.807Z,269.80
2019-05-26T06:57:10.248Z,311.20
2019-05-26T06:59:40.680Z,314.30
2019-05-26T07:02:11.010Z,314.57
2019-05-26T07:04:41.441Z,211.00
2019-05-26T07:07:11.801Z,214.30
2019-05-26T07:09:42.153Z,207.70
2019-05-26T07:12:13.915Z,168.37
2019-05-26T07:14:44.409Z,197.57
2019-05-26T07:17:14.786Z,234.87
2019-05-26T07:19:45.529Z,233.93
2019-05-26T07:22:15.825Z,224.10
2019-05-26T07:24:46.496Z,159.40
2019-05-26T07:27:17.134Z,153.83
2019-05-26T07:29:47.608Z,150.00
2019-05-26T07:32:18.366Z,115.37
2019-05-26T07:34:49.068Z,105.03
2019-05-26T07:37:19.429Z,94.70
2019-05-26T07:39:50.028Z,113.33
2019-05-26T07:42:20.879Z,108.07
2019-05-26T07:44:51.280Z,148.87
2019-05-26T07:47:21.702Z,85.20
2019-05-26T07:49:52.389Z,83.20
2019-05-26T07:52:22.700Z,88.57
2019-05-26T07:54:53.115Z,69.03
2019-05-26T07:57:23.497Z,75.80
2019-05-26T07:59:54.256Z,87.47
2019-05-26T08:02:25.027Z,79.63
2019-05-26T08:04:55.330Z,63.03
2019-05-26T08:07:27.129Z,77.37
2019-05-26T08:09:57.838Z,79.33
2019-05-26T08:12:30.536Z,85.77
2019-05-26T08:15:00.334Z,83.00
2019-05-26T08:17:30.863Z,97.73
2019-05-26T08:20:01.154Z,98.00
2019-05-26T08:22:31.486Z,92.83
2019-05-26T08:25:01.887Z,107.10
2019-05-26T08:27:32.297Z,101.03
2019-05-26T08:30:02.707Z,87.53
2019-05-26T08:32:33.521Z,69.83
2019-05-26T08:35:04.079Z,56.37
2019-05-26T08:37:34.424Z,67.87
2019-05-26T08:40:20.918Z,98.50
2019-05-26T08:42:52.430Z,66.37
2019-05-26T08:45:23.863Z,73.83
2019-05-26T08:47:54.466Z,69.17
2019-05-26T08:50:24.994Z,84.60
2019-05-26T08:52:55.296Z,66.30
2019-05-26T08:55:25.625Z,73.67
2019-05-26T08:57:56.179Z,506.70
2019-05-26T09:00:27.052Z,502.58
2019-05-26T09:02:57.846Z,482.53
2019-05-26T09:05:28.200Z,502.80
2019-05-26T09:07:58.822Z,490.73
2019-05-26T09:10:29.547Z,500.43
2019-05-26T09:13:01.517Z,534.48
2019-05-26T09:15:32.102Z,531.43
2019-05-26T09:18:02.705Z,555.50
2019-05-26T09:20:33.047Z,479.53
2019-05-26T09:23:03.353Z,492.57
2019-05-26T09:25:33.817Z,491.60
2019-05-26T09:28:04.451Z,475.60
2019-05-26T09:30:35.284Z,271.55
2019-05-26T09:33:05.612Z,259.92
2019-05-26T09:35:36.076Z,248.07
2019-05-26T09:38:06.984Z,171.35
2019-05-26T09:40:37.309Z,163.07
2019-05-26T09:43:15.583Z,88.97
2019-05-26T09:45:40.010Z,95.65
2019-05-26T09:48:10.538Z,342.27
2019-05-26T09:50:40.848Z,323.77
2019-05-26T09:53:11.632Z,272.37
2019-05-26T09:55:42.025Z,261.02
2019-05-26T09:58:12.374Z,241.55
2019-05-26T10:00:44.335Z,232.57
2019-05-26T10:03:14.833Z,249.62
2019-05-26T10:05:45.505Z,268.27
2019-05-26T10:08:15.908Z,200.82
2019-05-26T10:10:46.276Z,248.78
2019-05-26T10:13:30.909Z,206.47
2019-05-26T10:15:49.424Z,206.57
2019-05-26T10:18:20.746Z,223.25
2019-05-26T10:20:51.421Z,217.85
2019-05-26T10:23:21.895Z,169.32
2019-05-26T10:25:52.255Z,250.03
2019-05-26T10:28:22.973Z,281.23
2019-05-26T10:30:53.789Z,247.88
2019-05-26T10:33:24.372Z,326.48
2019-05-26T10:35:54.897Z,250.78
2019-05-26T10:38:25.410Z,253.92
2019-05-26T10:40:56.328Z,254.20
2019-05-26T10:43:26.956Z,252.38
2019-05-26T10:45:57.283Z,176.07
2019-05-26T10:48:27.929Z,167.45
2019-05-26T10:50:58.382Z,159.07
2019-05-26T10:53:28.769Z,233.47
2019-05-26T10:56:00.116Z,272.75
2019-05-26T10:58:30.948Z,213.50
2019-05-26T11:01:01.353Z,206.80
2019-05-26T11:03:31.670Z,209.98
2019-05-26T11:06:02.417Z,228.60
2019-05-26T11:08:33.001Z,224.55
2019-05-26T11:11:03.809Z,270.52
2019-05-26T11:13:34.132Z,222.80
2019-05-26T11:16:04.724Z,210.55
2019-05-26T11:18:35.362Z,149.57
2019-05-26T11:21:05.717Z,67.37
2019-05-26T11:23:36.111Z,80.38
2019-05-26T11:26:07.202Z,67.62
2019-05-26T11:28:37.960Z,41.50
2019-05-26T11:31:08.302Z,81.97
2019-05-26T11:33:39.036Z,76.07
2019-05-26T11:36:09.702Z,164.57
2019-05-26T11:38:40.228Z,446.27
2019-05-26T11:41:10.554Z,925.35
2019-05-26T11:43:40.929Z,1999.90
2019-05-26T11:46:11.636Z,1999.90
2019-05-26T11:48:42.128Z,1031.60
2019-05-26T11:51:12.451Z,1999.90
2019-05-26T11:53:42.934Z,1058.60
2019-05-26T11:56:13.441Z,1999.90
2019-05-26T11:58:43.853Z,1999.90
2019-05-26T12:01:14.512Z,1999.90
2019-05-26T12:03:45.181Z,1999.90
2019-05-26T12:06:15.722Z,1999.90
2019-05-26T12:08:46.309Z,1923.88
2019-05-26T12:11:16.630Z,885.73
2019-05-26T12:13:47.319Z,1999.90
2019-05-26T12:16:18.075Z,1534.83
2019-05-26T12:18:48.435Z,1999.90
2019-05-26T12:21:18.935Z,992.75
2019-05-26T12:23:49.534Z,1999.90
2019-05-26T12:26:19.829Z,1999.90
2019-05-26T12:28:50.515Z,1999.90
2019-05-26T12:31:21.183Z,1999.90
2019-05-26T12:33:51.667Z,1999.90
2019-05-26T12:36:22.085Z,1999.90
2019-05-26T12:38:52.812Z,1999.90
2019-05-26T12:41:23.543Z,1440.83
2019-05-26T12:43:53.890Z,736.73
2019-05-26T12:46:24.712Z,1139.50
2019-05-26T12:48:55.123Z,659.33
2019-05-26T12:51:25.446Z,351.67
2019-05-26T12:53:56.205Z,755.70
2019-05-26T12:56:26.808Z,413.68
2019-05-26T12:58:57.579Z,212.50
2019-05-26T13:01:28.472Z,209.10
2019-05-26T13:03:59.238Z,164.20
2019-05-26T13:06:29.702Z,142.50
2019-05-26T13:09:00.191Z,177.82
2019-05-26T13:11:30.915Z,111.70
2019-05-26T13:14:01.212Z,180.82
2019-05-26T13:16:35.639Z,103.78
2019-05-26T13:19:04.101Z,88.37
2019-05-26T13:21:34.569Z,152.12
2019-05-26T13:24:05.616Z,146.68
2019-05-26T13:26:35.974Z,236.47
2019-05-26T13:29:06.604Z,133.57
2019-05-26T13:31:38.228Z,125.55
2019-05-26T13:34:08.575Z,130.35
2019-05-26T13:36:39.013Z,126.55
2019-05-26T13:39:09.970Z,116.08
2019-05-26T13:41:40.290Z,148.00
2019-05-26T13:44:10.596Z,152.93
2019-05-26T13:46:41.227Z,134.03
2019-05-26T13:49:11.634Z,145.75
2019-05-26T13:51:42.060Z,130.90
2019-05-26T13:54:12.435Z,123.35
2019-05-26T13:56:42.829Z,106.12
2019-05-26T13:59:13.572Z,105.32
2019-05-26T14:01:43.867Z,104.63
2019-05-26T14:04:14.232Z,126.87
2019-05-26T14:06:44.930Z,115.45
2019-05-26T14:09:15.516Z,118.55
2019-05-26T14:11:45.806Z,124.62
2019-05-26T14:14:16.669Z,130.97
2019-05-26T14:16:49.563Z,117.95
2019-05-26T14:19:21.224Z,128.15
2019-05-26T14:21:51.549Z,213.57
2019-05-26T14:24:21.914Z,241.90
2019-05-26T14:26:53.666Z,276.67
2019-05-26T14:29:24.317Z,228.47
2019-05-26T14:31:54.626Z,250.03
2019-05-26T14:34:26.411Z,297.33
2019-05-26T14:36:57.028Z,228.47
2019-05-26T14:39:28.456Z,270.90
2019-05-26T14:41:59.294Z,291.82
2019-05-26T14:44:29.783Z,333.73
2019-05-26T14:47:00.099Z,290.18
2019-05-26T14:49:30.498Z,244.93
2019-05-26T14:52:00.925Z,307.90
2019-05-26T14:54:31.717Z,262.35
2019-05-26T14:57:02.351Z,200.55
2019-05-26T14:59:32.892Z,232.25
2019-05-26T15:02:03.567Z,285.10
2019-05-26T15:04:34.311Z,293.90
2019-05-26T15:07:04.609Z,270.48
2019-05-26T15:09:35.213Z,274.73
2019-05-26T15:12:06.211Z,325.20
2019-05-26T15:14:36.583Z,340.75
2019-05-26T15:17:07.047Z,348.68
2019-05-26T15:19:37.481Z,341.65
2019-05-26T15:22:07.858Z,340.05
2019-05-26T15:24:38.638Z,302.60
2019-05-26T15:27:09.025Z,387.42
2019-05-26T15:29:39.530Z,351.52
2019-05-26T15:32:09.956Z,373.85
2019-05-26T15:34:40.409Z,358.27
2019-05-26T15:37:11.971Z,277.38
2019-05-26T15:39:42.696Z,269.05
2019-05-26T15:42:13.026Z,314.32
2019-05-26T15:44:43.424Z,372.65
2019-05-26T15:47:14.024Z,276.55
2019-05-26T15:49:44.457Z,283.10
2019-05-26T15:52:14.796Z,250.20
2019-05-26T15:54:45.572Z,273.38
2019-05-26T15:57:15.970Z,223.50
2019-05-26T15:59:46.771Z,183.72
2019-05-26T16:02:17.169Z,159.57
2019-05-26T16:04:47.496Z,140.92
2019-05-26T16:07:18.251Z,126.25
2019-05-26T16:09:48.809Z,124.78
2019-05-26T16:12:19.205Z,145.17
2019-05-26T16:14:49.830Z,122.13
2019-05-26T16:17:20.345Z,122.02
2019-05-26T16:19:50.731Z,139.88
2019-05-26T16:22:21.563Z,137.47
2019-05-26T16:24:52.325Z,115.62
2019-05-26T16:27:22.777Z,132.72
2019-05-26T16:29:53.255Z,134.90
2019-05-26T16:32:23.657Z,126.27
2019-05-26T16:34:54.424Z,100.95
2019-05-26T16:37:25.188Z,125.18
2019-05-26T16:39:56.078Z,111.95
2019-05-26T16:42:26.750Z,138.88
2019-05-26T16:44:57.239Z,124.35
2019-05-26T16:47:27.597Z,113.65
2019-05-26T16:49:58.102Z,110.95
2019-05-26T16:52:32.066Z,131.40
2019-05-26T16:55:02.573Z,113.52
2019-05-26T16:57:33.143Z,107.07
2019-05-26T17:00:04.098Z,106.15
2019-05-26T17:02:34.613Z,95.32
2019-05-26T17:05:05.838Z,109.32
2019-05-26T17:07:36.641Z,118.30
2019-05-26T17:10:08.323Z,107.80
2019-05-26T17:12:38.768Z,922.08
2019-05-26T17:15:10.808Z,1454.35
2019-05-26T17:17:41.238Z,1999.90
2019-05-26T17:20:13.318Z,1752.60
2019-05-26T17:22:44.126Z,1450.33
2019-05-26T17:25:15.164Z,542.98
2019-05-26T17:27:45.576Z,104.90
2019-05-26T17:30:17.727Z,50.38
2019-05-26T17:32:48.030Z,50.03
2019-05-26T17:35:18.985Z,68.37
2019-05-26T17:37:49.765Z,65.62
2019-05-26T17:40:22.944Z,64.62
2019-05-26T17:42:53.582Z,46.65
2019-05-26T17:45:24.104Z,64.80
2019-05-26T17:47:54.386Z,58.40
2019-05-26T17:50:25.145Z,54.67
2019-05-26T17:52:55.801Z,54.35
2019-05-26T17:55:26.222Z,67.87
2019-05-26T17:57:56.770Z,63.43
2019-05-26T18:00:27.750Z,51.30
2019-05-26T18:02:58.338Z,53.07
2019-05-26T18:05:29.073Z,69.07
2019-05-26T18:07:59.517Z,104.87
2019-05-26T18:10:30.214Z,185.63
2019-05-26T18:13:00.632Z,62.57
2019-05-26T18:15:30.959Z,65.17
2019-05-26T18:18:01.261Z,62.70
2019-05-26T18:20:32.118Z,82.50
2019-05-26T18:23:02.499Z,153.13
2019-05-26T18:25:32.806Z,150.23
2019-05-26T18:28:03.492Z,93.43
2019-05-26T18:30:34.029Z,207.67
2019-05-26T18:33:04.439Z,306.47
2019-05-26T18:35:36.156Z,355.07
2019-05-26T18:38:06.851Z,389.00
2019-05-26T18:40:38.165Z,391.80
2019-05-26T18:43:08.541Z,449.67
2019-05-26T18:45:38.968Z,411.10
2019-05-26T18:48:09.479Z,470.73
2019-05-26T18:50:39.903Z,496.57
2019-05-26T18:53:10.288Z,456.97
2019-05-26T18:55:41.108Z,409.37
2019-05-26T18:58:11.558Z,435.70
2019-05-26T19:00:42.112Z,470.20
2019-05-26T19:03:12.843Z,479.40
2019-05-26T19:05:43.578Z,506.07
2019-05-26T19:08:14.031Z,451.63
2019-05-26T19:10:44.537Z,470.50
2019-05-26T19:13:14.943Z,426.90
2019-05-26T19:15:45.761Z,510.93
2019-05-26T19:18:20.210Z,399.93
2019-05-26T19:20:48.385Z,451.13
2019-05-26T19:23:19.288Z,392.27
2019-05-26T19:25:50.281Z,446.00
2019-05-26T19:28:20.596Z,426.13
2019-05-26T19:30:51.557Z,239.57
2019-05-26T19:33:22.435Z,201.07
2019-05-26T19:35:52.849Z,185.60
2019-05-26T19:38:23.366Z,185.33
2019-05-26T19:40:53.963Z,216.83
2019-05-26T19:43:24.422Z,173.67
2019-05-26T19:45:54.901Z,214.53
2019-05-26T19:48:35.853Z,187.03
2019-05-26T19:50:57.885Z,226.97
2019-05-26T19:53:28.866Z,259.90
2019-05-26T19:55:59.484Z,144.80
2019-05-26T19:58:30.053Z,94.83
2019-05-26T20:01:00.726Z,117.97
2019-05-26T20:03:31.229Z,104.67
2019-05-26T20:06:01.781Z,99.53
2019-05-26T20:08:32.790Z,118.93
2019-05-26T20:11:03.236Z,123.23
2019-05-26T20:13:33.710Z,114.17
2019-05-26T20:16:04.303Z,209.17
2019-05-26T20:18:34.806Z,225.60
2019-05-26T20:21:05.736Z,168.30
2019-05-26T20:23:36.048Z,147.90
2019-05-26T20:26:06.754Z,143.30
2019-05-26T20:28:37.995Z,112.93
2019-05-26T20:31:08.343Z,109.47
2019-05-26T20:33:38.777Z,146.73
2019-05-26T20:36:09.498Z,136.53
2019-05-26T20:38:40.071Z,143.10
2019-05-26T20:41:10.499Z,193.10
2019-05-26T20:43:41.022Z,165.63
2019-05-26T20:46:11.505Z,170.10
2019-05-26T20:48:42.456Z,167.10
2019-05-26T20:51:13.851Z,188.53
2019-05-26T20:53:44.192Z,180.97
2019-05-26T20:56:15.157Z,152.27
2019-05-26T20:58:45.518Z,132.17
2019-05-26T21:01:15.847Z,97.83
2019-05-26T21:03:46.609Z,93.80
2019-05-26T21:06:17.440Z,99.97
2019-05-26T21:08:47.831Z,146.63
2019-05-26T21:11:18.575Z,161.43
2019-05-26T21:13:49.311Z,151.27
2019-05-26T21:16:19.694Z,132.67
2019-05-26T21:18:50.197Z,128.40
2019-05-26T21:21:20.876Z,100.97
2019-05-26T21:23:51.185Z,106.17
2019-05-26T21:26:21.992Z,71.80
2019-05-26T21:28:52.623Z,63.20
2019-05-26T21:31:23.915Z,65.93
2019-05-26T21:33:54.266Z,90.37
2019-05-26T21:36:25.044Z,122.70
2019-05-26T21:38:55.561Z,110.00
2019-05-26T21:41:25.889Z,53.67
2019-05-26T21:43:56.474Z,55.13
2019-05-26T21:46:27.139Z,148.73
2019-05-26T21:48:57.675Z,90.80
2019-05-26T21:51:28.047Z,88.03
2019-05-26T21:53:58.383Z,70.90
2019-05-26T21:56:29.079Z,65.17
2019-05-26T21:58:59.612Z,65.27
2019-05-26T22:01:30.154Z,48.63
2019-05-26T22:04:00.873Z,47.67
2019-05-26T22:06:31.605Z,44.20
2019-05-26T22:09:01.902Z,50.33
2019-05-26T22:11:32.740Z,62.20
2019-05-26T22:14:03.165Z,52.00
2019-05-26T22:16:33.523Z,46.87
2019-05-26T22:19:04.243Z,42.03
2019-05-26T22:21:34.787Z,45.60
2019-05-26T22:24:05.780Z,35.43
2019-05-26T22:26:37.443Z,34.27
2019-05-26T22:29:07.738Z,42.07
2019-05-26T22:31:38.577Z,36.70
2019-05-26T22:34:09.233Z,43.10
2019-05-26T22:36:39.664Z,37.60
2019-05-26T22:39:10.120Z,35.30
2019-05-26T22:41:40.669Z,35.63
2019-05-26T22:44:10.963Z,34.77
2019-05-26T22:46:41.322Z,38.00
2019-05-26T22:49:11.942Z,41.40
2019-05-26T22:51:42.269Z,47.77
2019-05-26T22:54:13.102Z,60.83
2019-05-26T22:56:43.388Z,39.97
2019-05-26T22:59:13.811Z,47.40
2019-05-26T23:01:44.517Z,47.53
2019-05-26T23:04:14.997Z,37.67
2019-05-26T23:06:45.447Z,46.77
2019-05-26T23:09:15.962Z,41.43
2019-05-26T23:11:46.292Z,44.87
2019-05-26T23:14:16.588Z,45.80
2019-05-26T23:16:47.267Z,56.23
2019-05-26T23:19:19.746Z,74.40
2019-05-26T23:21:49.846Z,220.00
2019-05-26T23:24:20.696Z,158.00
2019-05-26T23:26:51.264Z,161.27
2019-05-26T23:29:22.017Z,86.03
2019-05-26T23:31:52.402Z,239.23
2019-05-26T23:34:22.785Z,308.50
2019-05-26T23:36:53.519Z,459.60
2019-05-26T23:39:24.957Z,416.20
2019-05-26T23:41:55.262Z,388.83
2019-05-26T23:44:25.988Z,365.77
2019-05-26T23:49:36.734Z,402.17
2019-05-26T23:52:07.293Z,386.57
2019-05-26T23:54:38.006Z,347.80
2019-05-26T23:57:08.323Z,462.73
2019-05-26T23:59:39.097Z,479.40
